createdAt,value
2024-03-08T00:00:15.023Z,72.90
2024-03-08T00:02:44.331Z,67.30
2024-03-08T00:05:12.529Z,71.40
2024-03-08T00:07:40.479Z,68.80
2024-03-08T00:10:12.716Z,65.10
2024-03-08T00:12:47.848Z,64.90
2024-03-08T00:15:18.272Z,69.40
2024-03-08T00:17:47.287Z,72.40
2024-03-08T00:20:15.609Z,71.90
2024-03-08T00:22:43.615Z,75.80
2024-03-08T00:25:11.624Z,74.50
2024-03-08T00:27:45.118Z,70.40
2024-03-08T00:30:14.636Z,69.10
2024-03-08T00:32:42.646Z,83.40
2024-03-08T00:35:11.421Z,81.90
2024-03-08T00:37:39.032Z,70.10
2024-03-08T00:40:08.415Z,72.40
2024-03-08T00:42:36.180Z,81.70
2024-03-08T00:45:04.214Z,83.10
2024-03-08T00:47:31.901Z,74.10
2024-03-08T00:49:59.550Z,74.10
2024-03-08T00:52:27.277Z,74.70
2024-03-08T00:54:54.821Z,77.30
2024-03-08T00:57:23.225Z,74.40
2024-03-08T00:59:52.251Z,76.10
2024-03-08T01:02:24.295Z,80.10
2024-03-08T01:04:55.420Z,83.30
2024-03-08T01:07:26.452Z,76.20
2024-03-08T01:09:56.808Z,81.00
2024-03-08T01:12:27.474Z,79.20
2024-03-08T01:14:56.418Z,79.60
2024-03-08T01:17:27.579Z,69.60
2024-03-08T01:19:57.817Z,63.30
2024-03-08T01:22:29.665Z,69.80
2024-03-08T01:24:59.017Z,70.50
2024-03-08T01:27:29.493Z,66.60
2024-03-08T01:30:01.552Z,64.40
2024-03-08T01:32:32.040Z,72.80
2024-03-08T01:35:01.515Z,63.20
2024-03-08T01:37:31.337Z,63.20
2024-03-08T01:40:02.540Z,65.30
2024-03-08T01:42:33.085Z,63.70
2024-03-08T01:45:02.544Z,69.70
2024-03-08T01:47:34.647Z,65.00
2024-03-08T01:50:05.010Z,60.90
2024-03-08T01:52:36.556Z,69.70
2024-03-08T01:55:08.846Z,62.30
2024-03-08T01:57:39.620Z,72.10
2024-03-08T02:08:15.057Z,76.60
2024-03-08T02:10:44.678Z,58.10
2024-03-08T02:13:12.247Z,68.70
2024-03-08T02:16:02.228Z,61.30
2024-03-08T02:18:30.242Z,62.90
2024-03-08T02:21:00.726Z,64.00
2024-03-08T02:23:27.826Z,71.80
2024-03-08T02:25:55.724Z,72.40
2024-03-08T02:28:22.684Z,64.30
2024-03-08T02:30:51.164Z,61.90
2024-03-08T02:33:18.788Z,58.70
2024-03-08T02:35:47.716Z,58.50
2024-03-08T02:38:19.117Z,69.00
2024-03-08T02:40:49.900Z,64.30
2024-03-08T02:43:18.201Z,56.90
2024-03-08T02:45:48.214Z,61.20
2024-03-08T02:48:17.037Z,59.90
2024-03-08T02:50:44.998Z,67.50
2024-03-08T02:53:12.420Z,62.70
2024-03-08T02:55:39.881Z,60.70
2024-03-08T02:58:09.487Z,67.50
2024-03-08T03:00:37.115Z,68.60
2024-03-08T03:03:04.397Z,60.40
2024-03-08T03:05:31.509Z,65.10
2024-03-08T03:07:58.909Z,58.30
2024-03-08T03:10:26.469Z,57.80
2024-03-08T03:12:53.623Z,68.10
2024-03-08T03:15:20.178Z,67.20
2024-03-08T03:17:48.551Z,68.70
2024-03-08T03:20:15.702Z,66.20
2024-03-08T03:22:42.527Z,71.30
2024-03-08T03:25:10.416Z,77.50
2024-03-08T03:27:37.486Z,77.10
2024-03-08T03:30:21.463Z,71.60
2024-03-08T03:35:23.180Z,69.70
2024-03-08T03:38:03.081Z,69.40
2024-03-08T03:40:30.313Z,79.60
2024-03-08T03:42:57.041Z,68.10
2024-03-08T03:45:24.635Z,66.20
2024-03-08T03:47:52.516Z,65.00
2024-03-08T03:50:19.786Z,64.80
2024-03-08T03:52:47.480Z,68.20
2024-03-08T03:55:15.236Z,68.20
2024-03-08T03:57:42.181Z,65.70
2024-03-08T04:00:12.662Z,61.20
2024-03-08T04:02:44.701Z,68.40
2024-03-08T04:05:11.620Z,68.70
2024-03-08T04:07:38.777Z,66.60
2024-03-08T04:10:06.966Z,65.00
2024-03-08T04:12:34.868Z,65.70
2024-03-08T04:15:02.136Z,65.70
2024-03-08T04:17:29.249Z,68.60
2024-03-08T04:19:56.372Z,68.90
2024-03-08T04:22:23.251Z,77.40
2024-03-08T04:24:49.925Z,69.80
2024-03-08T04:27:16.741Z,70.00
2024-03-08T04:29:43.598Z,64.70
2024-03-08T04:32:10.627Z,59.20
2024-03-08T04:34:37.439Z,64.00
2024-03-08T04:37:05.300Z,70.00
2024-03-08T04:39:32.665Z,62.50
2024-03-08T04:42:04.124Z,67.60
2024-03-08T04:44:32.624Z,62.60
2024-03-08T04:46:59.660Z,59.30
2024-03-08T04:49:26.397Z,60.60
2024-03-08T04:51:53.136Z,67.50
2024-03-08T04:54:19.973Z,59.30
2024-03-08T04:56:46.778Z,60.70
2024-03-08T04:59:14.161Z,54.80
2024-03-08T05:01:41.058Z,60.80
2024-03-08T05:04:10.162Z,54.20
2024-03-08T05:06:37.721Z,54.40
2024-03-08T05:09:14.223Z,54.30
2024-03-08T05:11:42.546Z,55.30
2024-03-08T05:14:09.249Z,47.20
2024-03-08T05:16:36.529Z,43.80
2024-03-08T05:19:03.780Z,46.50
2024-03-08T05:21:30.832Z,44.50
2024-03-08T05:23:57.699Z,47.40
2024-03-08T05:26:24.608Z,44.50
2024-03-08T05:28:51.395Z,45.50
2024-03-08T05:31:24.072Z,44.60
2024-03-08T05:33:50.990Z,44.50
2024-03-08T05:36:17.801Z,43.40
2024-03-08T05:38:44.478Z,42.70
2024-03-08T05:41:12.651Z,41.70
2024-03-08T05:43:41.235Z,40.20
2024-03-08T05:46:08.105Z,41.80
2024-03-08T05:48:34.896Z,51.20
2024-03-08T05:51:02.617Z,57.10
2024-03-08T05:53:33.019Z,56.20
2024-03-08T05:56:00.049Z,43.40
2024-03-08T05:58:27.360Z,44.10
2024-03-08T06:00:54.425Z,43.20
2024-03-08T06:03:22.064Z,49.40
2024-03-08T06:05:50.010Z,48.10
2024-03-08T06:08:17.250Z,42.10
2024-03-08T06:10:44.201Z,39.50
2024-03-08T06:16:08.918Z,53.60
2024-03-08T06:18:42.706Z,54.30
2024-03-08T06:21:12.914Z,52.20
2024-03-08T06:23:40.053Z,41.30
2024-03-08T06:26:07.559Z,40.70
2024-03-08T06:28:35.524Z,45.80
2024-03-08T06:31:03.039Z,48.20
2024-03-08T06:33:31.600Z,47.00
2024-03-08T06:35:58.582Z,43.30
2024-03-08T06:38:25.811Z,40.50
2024-03-08T06:40:53.635Z,42.20
2024-03-08T06:43:20.555Z,47.40
2024-03-08T06:45:49.066Z,43.80
2024-03-08T06:48:19.209Z,42.10
2024-03-08T06:50:47.456Z,39.40
2024-03-08T06:53:14.417Z,35.70
2024-03-08T06:55:41.362Z,32.50
2024-03-08T06:58:08.073Z,42.40
2024-03-08T07:00:35.186Z,39.30
2024-03-08T07:03:03.105Z,37.20
2024-03-08T07:05:32.124Z,39.70
2024-03-08T07:07:59.161Z,35.50
2024-03-08T07:10:25.924Z,36.30
2024-03-08T07:12:53.799Z,36.40
2024-03-08T07:15:20.905Z,36.00
2024-03-08T07:17:48.020Z,34.10
2024-03-08T07:20:16.435Z,34.30
2024-03-08T07:22:45.092Z,36.30
2024-03-08T07:25:23.428Z,32.00
2024-03-08T07:27:54.634Z,36.10
2024-03-08T07:30:41.294Z,33.10
2024-03-08T07:33:08.917Z,36.50
2024-03-08T07:35:37.596Z,34.30
2024-03-08T07:38:08.590Z,31.60
2024-03-08T07:40:44.695Z,31.70
2024-03-08T07:43:11.738Z,33.40
2024-03-08T07:45:39.288Z,34.00
2024-03-08T07:48:10.237Z,37.30
2024-03-08T07:50:41.213Z,36.50
2024-03-08T07:53:08.154Z,26.90
2024-03-08T07:55:35.881Z,28.30
2024-03-08T07:58:03.734Z,27.30
2024-03-08T08:00:32.242Z,26.70
2024-03-08T08:02:59.239Z,28.70
2024-03-08T08:05:26.932Z,24.00
2024-03-08T08:07:54.158Z,27.80
2024-03-08T08:10:25.563Z,28.10
2024-03-08T08:12:52.304Z,25.20
2024-03-08T08:15:19.239Z,22.00
2024-03-08T08:17:46.224Z,21.50
2024-03-08T08:20:13.440Z,22.40
2024-03-08T08:22:40.941Z,19.10
2024-03-08T08:25:08.238Z,25.40
2024-03-08T08:27:37.114Z,26.50
2024-03-08T08:30:08.716Z,19.20
2024-03-08T08:32:37.739Z,21.10
2024-03-08T08:35:06.289Z,24.10
2024-03-08T08:37:33.130Z,17.90
2024-03-08T08:40:06.095Z,20.30
2024-03-08T08:42:33.061Z,11.20
2024-03-08T08:45:02.929Z,12.60
2024-03-08T08:47:34.151Z,13.10
2024-03-08T08:50:01.587Z,14.00
2024-03-08T08:52:29.877Z,13.10
2024-03-08T08:54:57.182Z,15.30
2024-03-08T08:57:24.775Z,12.40
2024-03-08T08:59:52.034Z,12.60
2024-03-08T09:02:21.614Z,14.00
2024-03-08T09:04:48.939Z,12.90
2024-03-08T09:07:17.008Z,13.20
2024-03-08T09:09:44.314Z,13.90
2024-03-08T09:12:13.993Z,11.00
2024-03-08T09:14:42.019Z,11.00
2024-03-08T09:17:09.224Z,10.50
2024-03-08T09:19:37.270Z,10.10
2024-03-08T09:22:07.369Z,9.60
2024-03-08T09:24:34.201Z,9.20
2024-03-08T09:27:00.825Z,9.30
2024-03-08T09:29:29.440Z,15.40
2024-03-08T09:31:56.493Z,8.20
2024-03-08T09:34:29.137Z,9.60
2024-03-08T09:36:59.797Z,7.90
2024-03-08T09:39:27.704Z,7.10
2024-03-08T09:41:55.975Z,6.80
2024-03-08T09:44:25.226Z,8.30
2024-03-08T09:46:53.994Z,7.20
2024-03-08T09:49:21.396Z,8.80
2024-03-08T09:51:48.662Z,9.60
2024-03-08T09:54:22.857Z,5.40
2024-03-08T09:56:50.623Z,9.00
2024-03-08T09:59:24.044Z,5.80
2024-03-08T10:04:21.608Z,5.50
2024-03-08T10:06:49.346Z,8.40
2024-03-08T10:09:17.315Z,6.60
2024-03-08T10:11:44.298Z,7.80
2024-03-08T10:14:11.430Z,7.40
2024-03-08T10:16:41.354Z,5.50
2024-03-08T10:19:09.024Z,6.00
2024-03-08T10:21:36.089Z,6.50
2024-03-08T10:24:06.162Z,5.00
2024-03-08T10:26:33.038Z,7.10
2024-03-08T10:28:59.966Z,6.30
2024-03-08T10:31:27.152Z,10.60
2024-03-08T10:33:54.989Z,7.10
2024-03-08T10:36:22.032Z,10.10
2024-03-08T10:38:53.537Z,6.60
2024-03-08T10:41:20.322Z,5.80
2024-03-08T10:43:59.376Z,6.70
2024-03-08T10:46:41.644Z,5.10
2024-03-08T10:49:11.819Z,6.20
2024-03-08T10:51:39.551Z,6.30
2024-03-08T10:54:07.833Z,5.90
2024-03-08T10:56:34.613Z,8.50
2024-03-08T10:59:01.748Z,6.20
2024-03-08T11:01:30.596Z,5.90
2024-03-08T11:03:57.703Z,5.90
2024-03-08T11:06:37.001Z,7.00
2024-03-08T11:09:14.151Z,6.10
2024-03-08T11:11:43.319Z,9.10
2024-03-08T11:14:46.886Z,5.40
2024-03-08T11:17:17.384Z,21.60
2024-03-08T11:19:49.577Z,11.20
2024-03-08T11:22:27.606Z,8.80
2024-03-08T11:24:58.329Z,6.50
2024-03-08T11:27:32.061Z,6.30
2024-03-08T11:32:46.877Z,6.70
2024-03-08T11:35:21.028Z,5.80
2024-03-08T11:37:48.727Z,6.20
2024-03-08T11:40:19.990Z,5.20
2024-03-08T11:42:52.128Z,6.20
2024-03-08T11:45:21.937Z,4.90
2024-03-08T11:47:49.970Z,5.00
2024-03-08T11:50:19.186Z,7.90
2024-03-08T11:52:46.584Z,4.90
2024-03-08T11:55:13.453Z,5.80
2024-03-08T11:57:40.550Z,7.80
2024-03-08T12:00:08.758Z,5.50
2024-03-08T12:02:38.382Z,7.60
2024-03-08T12:05:10.878Z,8.50
2024-03-08T12:07:37.924Z,6.70
2024-03-08T12:10:25.551Z,6.80
2024-03-08T12:12:59.825Z,5.40
2024-03-08T12:15:27.995Z,7.10
2024-03-08T12:17:56.173Z,6.30
2024-03-08T12:20:26.588Z,8.30
2024-03-08T12:22:54.756Z,8.10
2024-03-08T12:25:21.967Z,7.20
2024-03-08T12:27:49.076Z,8.80
2024-03-08T12:30:29.473Z,8.40
2024-03-08T12:32:58.054Z,9.80
2024-03-08T12:35:26.912Z,6.80
2024-03-08T12:37:55.333Z,7.70
2024-03-08T12:40:29.365Z,7.00
2024-03-08T12:42:56.770Z,5.60
2024-03-08T12:45:24.758Z,10.30
2024-03-08T12:47:55.389Z,5.80
2024-03-08T12:50:23.072Z,10.40
2024-03-08T12:52:52.373Z,5.60
2024-03-08T12:55:20.900Z,11.60
2024-03-08T12:57:49.244Z,8.70
2024-03-08T13:00:24.234Z,7.10
2024-03-08T13:02:52.155Z,5.20
2024-03-08T13:05:19.109Z,6.10
2024-03-08T13:07:46.852Z,9.10
2024-03-08T13:10:16.984Z,8.50
2024-03-08T13:12:43.998Z,7.50
2024-03-08T13:15:20.762Z,16.60
2024-03-08T13:17:49.022Z,7.30
2024-03-08T13:20:25.277Z,7.30
2024-03-08T13:23:00.864Z,6.20
2024-03-08T13:25:27.904Z,7.80
2024-03-08T13:27:57.231Z,7.70
2024-03-08T13:30:27.354Z,6.70
2024-03-08T13:32:57.367Z,5.80
2024-03-08T13:35:27.917Z,8.40
2024-03-08T13:37:54.835Z,7.10
2024-03-08T13:40:21.956Z,9.00
2024-03-08T13:42:52.033Z,8.30
2024-03-08T13:45:23.139Z,6.80
2024-03-08T13:47:53.714Z,7.30
2024-03-08T13:50:24.136Z,15.20
2024-03-08T13:52:55.506Z,7.50
2024-03-08T13:55:24.146Z,7.90
2024-03-08T13:57:54.167Z,6.00
2024-03-08T14:00:26.351Z,6.40
2024-03-08T14:02:54.555Z,9.80
2024-03-08T14:05:22.026Z,6.40
2024-03-08T14:07:49.829Z,8.20
2024-03-08T14:10:20.550Z,5.80
2024-03-08T14:12:50.378Z,5.70
2024-03-08T14:15:17.503Z,8.10
2024-03-08T14:17:47.279Z,7.70
2024-03-08T14:20:14.049Z,7.30
2024-03-08T14:22:40.896Z,12.00
2024-03-08T14:25:17.517Z,5.80
2024-03-08T14:27:45.704Z,7.90
2024-03-08T14:30:13.716Z,9.60
2024-03-08T14:32:42.284Z,8.40
2024-03-08T14:35:11.843Z,8.70
2024-03-08T14:37:38.632Z,10.30
2024-03-08T14:40:06.488Z,9.90
2024-03-08T14:42:33.838Z,8.70
2024-03-08T14:45:00.789Z,12.70
2024-03-08T14:47:27.708Z,9.00
2024-03-08T14:49:56.327Z,7.90
2024-03-08T14:52:28.968Z,7.00
2024-03-08T14:54:56.613Z,7.30
2024-03-08T14:57:23.403Z,5.80
2024-03-08T14:59:50.861Z,7.50
2024-03-08T15:02:19.756Z,10.30
2024-03-08T15:05:02.027Z,8.90
2024-03-08T15:07:31.557Z,18.00
2024-03-08T15:09:58.378Z,13.90
2024-03-08T15:12:26.701Z,12.80
2024-03-08T15:14:55.671Z,9.90
2024-03-08T15:17:23.550Z,7.10
2024-03-08T15:19:53.141Z,10.80
2024-03-08T15:22:24.522Z,7.10
2024-03-08T15:24:52.472Z,11.20
2024-03-08T15:27:19.528Z,13.80
2024-03-08T15:29:49.728Z,9.80
2024-03-08T15:32:22.992Z,13.50
2024-03-08T15:34:51.092Z,14.70
2024-03-08T15:37:18.160Z,18.70
2024-03-08T15:39:46.346Z,16.70
2024-03-08T15:42:13.159Z,14.10
2024-03-08T15:44:41.963Z,14.90
2024-03-08T15:47:13.334Z,16.00
2024-03-08T15:49:40.188Z,15.40
2024-03-08T15:52:06.992Z,20.00
2024-03-08T15:54:34.066Z,12.60
2024-03-08T15:57:03.438Z,15.90
2024-03-08T15:59:34.381Z,16.40
2024-03-08T16:02:01.860Z,17.80
2024-03-08T16:04:30.507Z,17.30
2024-03-08T16:06:57.450Z,16.20
2024-03-08T16:09:26.062Z,19.30
2024-03-08T16:11:54.298Z,20.70
2024-03-08T16:14:21.388Z,22.10
2024-03-08T16:16:49.170Z,21.70
2024-03-08T16:19:16.211Z,25.90
2024-03-08T16:21:44.410Z,32.30
2024-03-08T16:24:11.353Z,34.20
2024-03-08T16:26:38.275Z,42.90
2024-03-08T16:29:05.619Z,45.10
2024-03-08T16:31:32.797Z,49.10
2024-03-08T16:33:59.866Z,52.70
2024-03-08T16:36:27.906Z,59.20
2024-03-08T16:38:54.749Z,59.90
2024-03-08T16:41:21.946Z,57.60
2024-03-08T16:43:49.954Z,61.60
2024-03-08T16:46:17.211Z,58.70
2024-03-08T16:48:44.380Z,73.30
2024-03-08T16:51:11.772Z,71.20
2024-03-08T16:53:41.387Z,82.10
2024-03-08T16:56:12.050Z,91.20
2024-03-08T16:58:42.445Z,105.80
2024-03-08T17:01:09.585Z,94.30
2024-03-08T17:03:44.912Z,81.40
2024-03-08T17:06:21.456Z,82.80
2024-03-08T17:08:48.319Z,62.80
2024-03-08T17:11:17.621Z,64.70
2024-03-08T17:13:47.994Z,51.50
2024-03-08T17:16:15.930Z,50.70
2024-03-08T17:18:44.705Z,45.70
2024-03-08T17:21:14.163Z,39.30
2024-03-08T17:23:41.154Z,39.70
2024-03-08T17:26:09.164Z,46.10
2024-03-08T17:28:39.039Z,50.50
2024-03-08T17:31:10.296Z,48.00
2024-03-08T17:33:37.956Z,52.80
2024-03-08T17:36:07.871Z,56.10
2024-03-08T17:38:34.825Z,50.90
2024-03-08T17:41:01.826Z,56.40
2024-03-08T17:43:28.788Z,61.50
2024-03-08T17:45:56.176Z,57.00
2024-03-08T17:48:23.165Z,58.60
2024-03-08T17:50:50.606Z,59.60
2024-03-08T17:53:19.166Z,55.40
2024-03-08T17:55:46.581Z,57.10
2024-03-08T17:58:15.665Z,64.00
2024-03-08T18:00:44.028Z,58.20
2024-03-08T18:03:13.216Z,53.90
2024-03-08T18:05:44.111Z,50.10
2024-03-08T18:08:11.737Z,53.50
2024-03-08T18:10:38.803Z,53.70
2024-03-08T18:13:16.671Z,58.10
2024-03-08T18:15:44.213Z,53.00
2024-03-08T18:18:11.740Z,53.30
2024-03-08T18:20:45.615Z,56.20
2024-03-08T18:23:14.097Z,50.60
2024-03-08T18:25:40.854Z,60.90
2024-03-08T18:28:09.032Z,57.80
2024-03-08T18:30:39.511Z,62.00
2024-03-08T18:33:49.502Z,66.90
2024-03-08T18:36:17.164Z,65.60
2024-03-08T18:38:46.531Z,62.50
2024-03-08T18:41:16.254Z,59.40
2024-03-08T18:43:43.946Z,60.80
2024-03-08T18:46:13.572Z,61.70
2024-03-08T18:48:41.185Z,58.50
2024-03-08T18:51:08.856Z,61.60
2024-03-08T18:53:42.106Z,68.70
2024-03-08T18:56:10.337Z,66.50
2024-03-08T18:58:43.145Z,62.10
2024-03-08T19:01:14.462Z,64.40
2024-03-08T19:03:43.352Z,64.10
2024-03-08T19:06:11.716Z,59.90
2024-03-08T19:08:39.332Z,62.20
2024-03-08T19:11:06.969Z,80.80
2024-03-08T19:13:34.682Z,85.50
2024-03-08T19:16:02.413Z,96.10
2024-03-08T19:18:31.252Z,88.60
2024-03-08T19:20:59.962Z,71.60
2024-03-08T19:23:30.798Z,59.70
2024-03-08T19:25:58.803Z,54.70
2024-03-08T19:28:26.747Z,59.80
2024-03-08T19:30:55.937Z,60.90
2024-03-08T19:33:23.577Z,53.60
2024-03-08T19:35:51.170Z,62.90
2024-03-08T19:38:18.825Z,53.40
2024-03-08T19:40:47.303Z,54.20
2024-03-08T19:43:16.805Z,56.80
2024-03-08T19:45:45.959Z,68.20
2024-03-08T19:48:22.193Z,63.10
2024-03-08T19:50:51.154Z,52.60
2024-03-08T19:53:19.491Z,47.50
2024-03-08T19:55:52.005Z,45.30
2024-03-08T19:58:21.993Z,51.50
2024-03-08T20:00:50.709Z,57.00
2024-03-08T20:03:23.684Z,62.80
2024-03-08T20:05:56.558Z,54.00
2024-03-08T20:08:29.444Z,50.60
2024-03-08T20:11:00.344Z,52.40
2024-03-08T20:13:27.882Z,60.70
2024-03-08T20:15:55.838Z,68.10
2024-03-08T20:18:28.040Z,59.30
2024-03-08T20:20:56.993Z,67.40
2024-03-08T20:23:25.565Z,70.80
2024-03-08T20:25:53.531Z,64.20
2024-03-08T20:28:21.706Z,62.60
2024-03-08T20:30:49.533Z,62.90
2024-03-08T20:33:17.584Z,72.10
2024-03-08T20:35:51.557Z,67.20
2024-03-08T20:38:23.576Z,64.80
2024-03-08T20:40:53.619Z,72.30
2024-03-08T20:43:23.385Z,63.60
2024-03-08T20:45:51.639Z,71.40
2024-03-08T20:48:22.321Z,68.10
2024-03-08T20:50:52.167Z,69.30
2024-03-08T20:53:21.189Z,56.20
2024-03-08T20:55:50.676Z,48.60
2024-03-08T20:58:20.269Z,57.70
2024-03-08T21:01:10.347Z,58.80
2024-03-08T21:03:39.354Z,63.10
2024-03-08T21:06:09.044Z,58.40
2024-03-08T21:08:39.817Z,58.20
2024-03-08T21:11:08.155Z,62.30
2024-03-08T21:13:37.462Z,64.20
2024-03-08T21:16:07.048Z,55.00
2024-03-08T21:18:34.806Z,60.20
2024-03-08T21:21:04.803Z,68.40
2024-03-08T21:23:33.556Z,70.10
2024-03-08T21:26:02.932Z,64.30
2024-03-08T21:28:31.309Z,58.50
2024-03-08T21:31:02.287Z,52.60
2024-03-08T21:33:30.477Z,58.20
2024-03-08T21:36:00.698Z,51.30
2024-03-08T21:38:28.544Z,51.50
2024-03-08T21:41:02.745Z,42.30
2024-03-08T21:43:36.285Z,45.30
2024-03-08T21:54:07.546Z,40.10
2024-03-08T21:56:36.167Z,46.30
2024-03-08T21:59:04.933Z,46.60
2024-03-08T22:01:32.960Z,43.20
2024-03-08T22:04:00.796Z,45.70
2024-03-08T22:06:27.952Z,40.10
2024-03-08T22:08:54.669Z,44.30
2024-03-08T22:11:21.596Z,45.80
2024-03-08T22:13:48.958Z,50.40
2024-03-08T22:16:15.817Z,48.30
2024-03-08T22:18:42.758Z,50.10
2024-03-08T22:21:09.458Z,51.10
2024-03-08T22:23:37.175Z,49.00
2024-03-08T22:26:09.602Z,42.50
2024-03-08T22:28:36.322Z,50.20
2024-03-08T22:31:07.127Z,44.90
2024-03-08T22:33:34.490Z,47.70
2024-03-08T22:36:01.357Z,43.60
2024-03-08T22:38:27.961Z,41.40
2024-03-08T22:40:54.935Z,38.80
2024-03-08T22:43:22.691Z,40.70
2024-03-08T22:45:50.383Z,36.60
2024-03-08T22:48:17.209Z,36.30
2024-03-08T22:50:43.844Z,37.20
2024-03-08T22:53:14.082Z,36.00
2024-03-08T22:55:43.766Z,38.60
2024-03-08T22:58:10.717Z,42.00
2024-03-08T23:00:40.172Z,39.00
2024-03-08T23:03:10.620Z,39.90
2024-03-08T23:05:44.496Z,39.30
2024-03-08T23:08:11.647Z,38.60
2024-03-08T23:10:40.800Z,37.30
2024-03-08T23:13:10.090Z,34.40
2024-03-08T23:15:42.168Z,35.40
2024-03-08T23:18:12.304Z,38.10
2024-03-08T23:20:43.059Z,38.80
2024-03-08T23:23:13.285Z,37.20
2024-03-08T23:25:40.999Z,42.90
2024-03-08T23:28:09.032Z,51.90
2024-03-08T23:30:40.241Z,46.60
2024-03-08T23:33:12.870Z,45.80
2024-03-08T23:35:41.508Z,44.30
2024-03-08T23:38:08.278Z,43.80
2024-03-08T23:40:35.136Z,53.80
2024-03-08T23:43:01.812Z,48.00
2024-03-08T23:45:30.748Z,51.20
2024-03-08T23:48:00.108Z,44.80
2024-03-08T23:50:30.557Z,48.10
2024-03-08T23:53:02.023Z,62.70
2024-03-08T23:55:30.808Z,68.20
2024-03-08T23:57:58.626Z,60.70
